Steptoe Valley WMA, Nevada Weather observations

Data are for 10 minute period ending at time listed.
 Day   Time   Solar   Ave.   Ave.  Ave.  Vector  Max.   Baro.   Total    
  of    of     Rad.   Air    Rel.  Wind   Wind   Wind  Press.  Precip.   
Year   Day            Temp.  Hum.  Speed  Dir.   Gust                    
2014   (PST)  Kw/m2    F      %     mph   deg.    mph    mb.     in.     
-------------------------------------------------------------------------
 273   20:50   0.00   46.1    64    2.2   351     3.4   799.9    0.00 
 273   21:00   0.00   45.2    68    2.3   353     3.7   800.0    0.00 
 273   21:10   0.00   46.1    68    3.4   356     5.5   800.2    0.00 
 273   21:20   0.00   47.9    68    9.2   335    17.2   800.2    0.00 
 273   21:30   0.00   48.9    68   10.2   328    15.2   800.3    0.00 
 273   21:40   0.00   48.0    72   10.5   326    15.6   800.5    0.00 
 273   21:50   0.00   46.8    77    9.4   330    14.7   800.6    0.00 
 273   22:00   0.00   45.8    79    8.8   327    13.7   800.6    0.00 
 273   22:10   0.00   45.1    80    8.7   324    13.9   800.6    0.00 
 273   22:20   0.00   44.6    81    7.9   330    12.1   800.6    0.00 
 273   22:30   0.00   43.8    82    7.9   326    11.5   800.5    0.00 
 273   22:40   0.00   43.2    83    8.4   330    14.0   800.5    0.00 
 273   22:50   0.00   42.6    84    7.3   330    11.5   800.6    0.00 
 273   23:00   0.00   41.9    86    6.5   333     9.1   800.7    0.00 
 273   23:10   0.00   41.5    85    6.3   328    10.6   800.7    0.00 
 273   23:20   0.00   40.9    86    7.1   323    11.8   800.7    0.00 
 273   23:30   0.00   41.3    86    8.2   329    11.8   800.7    0.00 
 273   23:40   0.00   41.2    85    6.9   326    11.3   800.8    0.00 
 273   23:50   0.00   40.8    86    5.5   323     8.4   800.8    0.00 
 274    0:00   0.00   39.9    86    2.6   332     4.4   800.8    0.00 
 274    0:10   0.00   38.7    87    2.7   342     3.7   800.9    0.00 
 274    0:20   0.00   38.1    89    3.2   343     5.9   801.1    0.00 
 274    0:30   0.00   38.0    90    3.0   360     4.7   801.2    0.00 
 274    0:40   0.00   37.4    90    3.5   344     4.5   801.3    0.00 
 274    0:50   0.00   37.6    91    4.8   322     7.2   801.4    0.00 
 274    1:00   0.00   37.9    90    3.8   341     6.6   801.5    0.00 
 274    1:10   0.00   36.8    90    3.2   327     4.5   801.7    0.00 
 274    1:20   0.00   36.5    91    3.2   332     5.0   801.7    0.00 
 274    1:30   0.00   36.8    92    5.5   321     8.1   801.7    0.00 
 274    1:40   0.00   38.0    92    5.3   313     8.0   801.7    0.00 
 274    1:50   0.00   38.2    90    5.0   311     7.2   801.7    0.00 
 274    2:00   0.00   38.2    89    4.3   309     6.9   801.6    0.00 
 274    2:10   0.00   37.6    89    3.6   322     5.8   801.5    0.00 
 274    2:20   0.00   37.2    89    3.8     2     6.6   801.5    0.00 
 274    2:30   0.00   38.2    89    4.3    31     8.9   801.5    0.00 
 274    2:40   0.00   38.7    88    4.5    36     7.5   801.6    0.00 
 274    2:50   0.00   38.0    88    3.6    51     4.7   801.6    0.00 
 274    3:00   0.00   37.0    89    4.1    60     5.1   801.7    0.00 
 274    3:10   0.00   35.6    90    4.7    62     6.0   801.8    0.00 
 274    3:20   0.00   34.3    91    4.1    58     5.1   802.0    0.00 
 274    3:30   0.00   33.8    92    4.7    64     5.7   802.1    0.00 
 274    3:40   0.00   34.2    92    4.7    55     7.3   802.1    0.00 
 274    3:50   0.00   34.9    91    3.5    25     7.3   802.2    0.00 
 274    4:00   0.00   35.6    90    3.2    24     6.9   802.2    0.00 
 274    4:10   0.00   35.1    88    2.0    23     4.2   802.4    0.00 
 274    4:20   0.00   33.1    88    1.8    38     3.5   802.4    0.00 
 274    4:30   0.00   32.7    90    1.9    51     3.3   802.5    0.00 
 274    4:40   0.00   33.4    90    3.0    52     4.3   802.6    0.00 
 274    4:50   0.00   34.3    87    3.8    51     4.6   802.7    0.00 
 274    5:00   0.00   33.4    86    4.3    56     5.8   802.8    0.00 
 274    5:10   0.00   32.4    87    5.2    59     6.6   802.9    0.00 
 274    5:20   0.00   32.7    87    5.3    53     6.9   803.0    0.00 
 274    5:30   0.00   33.0    85    5.2    47     7.7   803.1    0.00 
 274    5:40   0.00   33.3    83    3.0     9     6.1   803.2    0.00 
 274    5:50   0.01   32.1    85    3.6    20     6.3   803.3    0.00 
 274    6:00   0.01   32.0    85    3.8    52     5.3   803.5    0.00 
 274    6:10   0.02   32.0    86    3.1    18     4.5   803.6    0.00 
 274    6:20   0.02   32.4    86    2.5    10     3.7   803.6    0.00 
 274    6:30   0.06   32.6    85    1.5    12     2.3   803.7    0.00 
 274    6:40   0.17   34.7    83    3.0    52     4.4   803.8    0.00 
 274    6:50   0.20   36.6    80    2.5    45     4.0   803.9    0.00 
 274    7:00   0.23   37.3    79    3.7   359     6.9   804.1    0.00 
 274    7:10   0.27   38.7    80    3.5   338     6.4   804.2    0.00 
 274    7:20   0.30   40.0    79    5.8   328    10.0   804.2    0.00 
 274    7:30   0.33   40.5    74    7.7   337    12.3   804.3    0.00 
 274    7:40   0.37   41.0    69    9.1   341    12.6   804.3    0.00 
 274    7:50   0.40   41.7    65   10.4   344    15.5   804.2    0.00 
 274    8:00   0.43   42.0    62   10.3   340    14.5   804.3    0.00 
 274    8:10   0.46   43.1    58    9.3   338    13.2   804.5    0.00 
 274    8:20   0.49   44.3    54   10.4   328    15.6   804.5    0.00 
 274    8:30   0.52   44.6    51   11.7   346    17.0   804.5    0.00 
 274    8:40   0.55   45.2    49   11.8   342    17.6   804.5    0.00 
 274    8:50   0.58   45.7    48   11.3   344    16.9   804.6    0.00 
 274    9:00   0.60   45.9    48   11.6   350    16.0   804.7    0.00 
 274    9:10   0.63   46.3    47   10.7   349    16.7   804.7    0.00 
 274    9:20   0.65   46.8    46   10.5   322    16.6   804.7    0.00 
 274    9:30   0.67   47.5    42   10.9   339    17.5   804.7    0.00 
 274    9:40   0.69   47.9    39   11.7   338    19.1   804.7    0.00 
 274    9:50   0.71   48.3    37   11.7   339    18.1   804.7    0.00 
 274   10:00   0.73   48.8    36   12.6   336    18.9   804.9    0.00 
 274   10:10   0.74   49.0    35   12.7   340    21.1   804.9    0.00 
 274   10:20   0.75   49.1    34   12.7   340    20.2   804.9    0.00 
 274   10:30   0.77   49.5    35   12.2   345    22.1   804.8    0.00 
 274   10:40   0.78   49.7    34   12.9   338    19.6   804.6    0.00 
 274   10:50   0.78   50.1    34   12.5   341    19.4   804.6    0.00 
 274   11:00   0.79   50.4    32   11.1   343    16.4   804.5    0.00 
 274   11:10   0.79   50.6    32   12.4   332    18.7   804.6    0.00 
 274   11:20   0.79   51.1    32   10.3   334    18.4   804.6    0.00 
 274   11:30   0.80   50.8    30   11.6   350    17.8   804.4    0.00 
 274   11:40   0.79   50.7    29   12.7   357    20.3   804.3    0.00 
 274   11:50   0.79   51.3    29    9.8   352    16.9   804.3    0.00 
 274   12:00   0.79   51.9    27   12.0   353    17.9   804.2    0.00 
 274   12:10   0.78   51.9    27   12.3   347    18.1   804.2    0.00 
 274   12:20   0.77   52.4    27   10.9   336    17.1   804.1    0.00 
 274   12:30   0.76   52.8    27   11.4   348    20.5   804.1    0.00 
 274   12:40   0.75   52.8    25   12.5   344    18.4   804.0    0.00 
 274   12:50   0.74   53.0    24   11.4   352    17.8   803.9    0.00 
 274   13:00   0.72   53.3    23   12.2   344    19.1   803.9    0.00 
 274   13:10   0.71   54.0    23   10.7   343    16.6   803.8    0.00 
 274   13:20   0.69   53.9    23   11.1   345    16.4   803.8    0.00 
 274   13:30   0.67   53.7    22   11.4   328    21.0   803.9    0.00 
 274   13:40   0.65   54.1    25   10.7   322    17.5   803.9    0.00 
 274   13:50   0.63   54.2    25    8.3   328    13.2   804.0    0.00 
 274   14:00   0.60   54.4    23   10.9   352    16.4   804.0    0.00 
 274   14:10   0.58   54.3    24   10.2   344    17.1   804.0    0.00 
 274   14:20   0.55   54.4    21   10.2     8    19.3   804.0    0.00 
 274   14:30   0.53   54.5    21    9.3   351    14.9   804.0    0.00 
 274   14:40   0.50   54.4    22    9.6   346    14.6   804.0    0.00 
 274   14:50   0.47   54.4    21    9.1     3    15.1   804.1    0.00 
 274   15:00   0.44   54.2    21   11.1   356    18.8   804.2    0.00 
 274   15:10   0.40   54.5    20    9.9   345    15.3   804.2    0.00 
 274   15:20   0.37   54.3    20   10.6   349    17.4   804.3    0.00 
 274   15:30   0.34   54.0    20   10.3   358    16.7   804.4    0.00 
 274   15:40   0.31   54.3    21    8.7     1    14.7   804.4    0.00 
 274   15:50   0.27   54.0    22    9.7     5    14.8   804.4    0.00 
 274   16:00   0.24   54.0    22    7.9     6    11.9   804.4    0.00 
 274   16:10   0.21   53.7    24    7.2   354    11.9   804.4    0.00 
 274   16:20   0.17   53.5    24    7.5     7    13.2   804.3    0.00 
 274   16:30   0.14   53.2    24    6.1     7    10.5   804.3    0.00 
 274   16:40   0.12   52.5    25    7.1   356    11.7   804.3    0.00 
 274   16:50   0.09   52.0    27    5.5   354     9.9   804.4    0.00 
 274   17:00   0.05   50.6    28    5.4   352     8.7   804.5    0.00 
 274   17:10   0.01   46.9    34    3.2     3     6.6   804.7    0.00 
 274   17:20   0.01   45.0    37    1.9   358     3.2   805.0    0.00 
 274   17:30   0.00   42.9    42    1.6     9     2.4   805.0    0.00 
 274   17:40   0.00   41.8    44    1.0     3     2.1   805.1    0.00 
 274   17:50   0.00   39.2    59    2.7   177     4.8   805.4    0.00 
 274   18:00   0.00   38.1    52    2.2   151     3.5   805.6    0.00 
 274   18:10   0.00   40.4    44    0.4    48     1.5   805.7    0.00 
 274   18:20   0.00   40.2    45    1.1    60     3.3   805.8    0.00 
 274   18:30   0.00   39.4    48    0.2    32     1.5   805.8    0.00 
 274   18:40   0.00   36.4    65    1.0   170     1.6   805.9    0.00 
 274   18:50   0.00   33.4    73    2.1   169     3.6   806.1    0.00 
 274   19:00   0.00   32.1    74    1.9   157     2.9   806.3    0.00 
 274   19:10   0.00   32.5    72    2.1   144     3.0   806.5    0.00 
 274   19:20   0.00   34.7    64    4.2    85     6.9   806.6    0.00 
 274   19:30   0.00   33.8    64    0.5   196     1.7   806.8    0.00 
 274   19:40   0.00   33.7    66    3.8    84     6.2   806.8    0.00 
 274   19:50   0.00   35.8    60    3.1    72     5.8   806.9    0.00 
 274   20:00   0.00   32.6    63    0.9     8     2.0   807.0    0.00 
 274   20:10   0.00   28.2    76    1.8   176     2.7   807.1    0.00 
 274   20:20   0.00   28.8    78    2.2   152     2.7   807.1    0.00 
 274   20:30   0.00   32.2    71    0.7   129     2.7   807.2    0.00 
 274   20:40   0.00   32.2    69    0.3   355     1.8   807.2    0.00 

Return to Steptoe Valley WMA graphs page.


Western Regional Climate Center,wrcc@dri.edu